SBJP/JPA METAR and TAF weather

Enter ICAO airport designator
Station Type Date Time Source
SBJP METAR 2019/12/10 03:00 UTC NOAA

SBJP 100300Z 16004KT 9999 FEW020 25/22 Q1012


Station Type Date Time Source
SBJP Decoded METAR 2019/12/10 03:00 UTC NOAA

Joao Pessoa, Brazil (SBJP) 07-06S 034-52W
Dec 09, 2019 - 10:00 PM EST / 2019.12.10 0300 UTC
Wind: from the SSE (160 degrees) at 5 MPH (4 KT):0
Visibility: greater than 7 mile(s):0
Sky conditions: mostly clear
Temperature: 77 F (25 C)
Dew Point: 71 F (22 C)
Relative Humidity: 83%
Pressure (altimeter): 29.88 in. Hg (1012 hPa)
ob: SBJP 100300Z 16004KT 9999 FEW020 25/22 Q1012
cycle: 3

Station Type Date Time Source
SBJP TAF 2019/12/10 00:00 UTC NOAA

TAF SBJP 092200Z 1000/1024 12005KT 9999 FEW020 TN24/1008Z TX31/1016Z
BECMG 1010/1011 09010KT BKN027
BECMG 1017/1019 SCT027
BECMG 1019/1021 SCT023
RMK PFY

Example: see airport list